sensor_id;sensor_type;location;lat;lon;timestamp;pressure;altitude;pressure_sealevel;temperature;humidity
6851;BME280;3464;42.728;23.296;2023-01-29T00:01:03;95371.42;;;6.94;60.79
6851;BME280;3464;42.728;23.296;2023-01-29T00:03:29;95374.84;;;6.46;62.20
6851;BME280;3464;42.728;23.296;2023-01-29T00:05:55;95374.30;;;7.10;61.34
6851;BME280;3464;42.728;23.296;2023-01-29T00:08:22;95378.69;;;7.37;60.19
6851;BME280;3464;42.728;23.296;2023-01-29T00:10:49;95376.73;;;7.06;61.05
6851;BME280;3464;42.728;23.296;2023-01-29T00:13:15;95386.49;;;6.79;61.67
6851;BME280;3464;42.728;23.296;2023-01-29T00:15:42;95376.95;;;7.15;61.14
6851;BME280;3464;42.728;23.296;2023-01-29T00:18:08;95386.02;;;6.77;61.52
6851;BME280;3464;42.728;23.296;2023-01-29T00:20:35;95394.09;;;7.01;61.58
6851;BME280;3464;42.728;23.296;2023-01-29T00:23:02;95394.77;;;6.94;61.28
6851;BME280;3464;42.728;23.296;2023-01-29T00:25:28;95388.80;;;6.55;61.99
6851;BME280;3464;42.728;23.296;2023-01-29T00:27:55;95392.25;;;7.27;61.28
6851;BME280;3464;42.728;23.296;2023-01-29T00:30:22;95388.80;;;6.55;61.91
6851;BME280;3464;42.728;23.296;2023-01-29T00:32:49;95397.31;;;6.78;62.27
6851;BME280;3464;42.728;23.296;2023-01-29T00:35:15;95393.05;;;6.74;62.26
6851;BME280;3464;42.728;23.296;2023-01-29T00:37:42;95394.99;;;7.02;61.51
6851;BME280;3464;42.728;23.296;2023-01-29T00:40:09;95394.80;;;6.46;62.50
6851;BME280;3464;42.728;23.296;2023-01-29T00:42:36;95396.06;;;6.78;62.08
6851;BME280;3464;42.728;23.296;2023-01-29T00:45:08;95395.48;;;6.88;61.75
6851;BME280;3464;42.728;23.296;2023-01-29T00:47:35;95398.43;;;7.07;61.40
6851;BME280;3464;42.728;23.296;2023-01-29T00:50:03;95392.36;;;6.64;62.08
6851;BME280;3464;42.728;23.296;2023-01-29T00:52:28;95395.48;;;6.56;61.88
6851;BME280;3464;42.728;23.296;2023-01-29T00:54:56;95399.86;;;6.80;61.52
6851;BME280;3464;42.728;23.296;2023-01-29T00:57:22;95389.10;;;6.50;62.11
6851;BME280;3464;42.728;23.296;2023-01-29T00:59:48;95397.42;;;7.00;61.60
6851;BME280;3464;42.728;23.296;2023-01-29T01:02:16;95395.69;;;7.32;60.69
6851;BME280;3464;42.728;23.296;2023-01-29T01:04:47;95391.34;;;7.07;60.92
6851;BME280;3464;42.728;23.296;2023-01-29T01:07:14;95387.27;;;7.47;60.56
6851;BME280;3464;42.728;23.296;2023-01-29T01:09:41;95380.91;;;7.43;60.10
6851;BME280;3464;42.728;23.296;2023-01-29T01:12:13;95382.98;;;7.42;60.19
6851;BME280;3464;42.728;23.296;2023-01-29T01:14:39;95388.89;;;7.45;59.78
6851;BME280;3464;42.728;23.296;2023-01-29T01:17:06;95378.86;;;8.04;58.93
6851;BME280;3464;42.728;23.296;2023-01-29T01:19:32;95377.58;;;8.03;58.65
6851;BME280;3464;42.728;23.296;2023-01-29T01:21:59;95376.60;;;7.55;59.47
6851;BME280;3464;42.728;23.296;2023-01-29T01:24:25;95380.95;;;7.83;58.98
6851;BME280;3464;42.728;23.296;2023-01-29T01:26:52;95375.97;;;7.85;59.15
6851;BME280;3464;42.728;23.296;2023-01-29T01:29:19;95378.88;;;7.64;59.85
6851;BME280;3464;42.728;23.296;2023-01-29T01:31:46;95379.17;;;7.79;59.46
6851;BME280;3464;42.728;23.296;2023-01-29T01:34:12;95381.63;;;7.37;59.88
6851;BME280;3464;42.728;23.296;2023-01-29T01:36:39;95380.38;;;7.38;59.83
6851;BME280;3464;42.728;23.296;2023-01-29T01:39:06;95391.20;;;7.01;61.27
6851;BME280;3464;42.728;23.296;2023-01-29T01:41:33;95383.66;;;7.54;60.34
6851;BME280;3464;42.728;23.296;2023-01-29T01:44:03;95378.12;;;7.13;60.54
6851;BME280;3464;42.728;23.296;2023-01-29T01:46:35;95379.05;;;7.34;60.82
6851;BME280;3464;42.728;23.296;2023-01-29T01:48:58;95374.36;;;7.48;60.75
6851;BME280;3464;42.728;23.296;2023-01-29T01:51:24;95379.16;;;7.39;61.77
6851;BME280;3464;42.728;23.296;2023-01-29T01:54:02;95390.94;;;7.62;61.47
6851;BME280;3464;42.728;23.296;2023-01-29T01:56:28;95378.98;;;7.13;61.92
6851;BME280;3464;42.728;23.296;2023-01-29T01:58:54;95393.01;;;6.89;63.16
6851;BME280;3464;42.728;23.296;2023-01-29T02:01:20;95395.36;;;6.83;63.37
6851;BME280;3464;42.728;23.296;2023-01-29T02:03:54;95397.24;;;6.76;63.45
6851;BME280;3464;42.728;23.296;2023-01-29T02:06:24;95398.28;;;7.01;63.55
6851;BME280;3464;42.728;23.296;2023-01-29T02:09:31;95400.39;;;7.02;63.45
6851;BME280;3464;42.728;23.296;2023-01-29T02:11:46;95403.25;;;7.00;63.38
6851;BME280;3464;42.728;23.296;2023-01-29T02:14:13;95396.67;;;7.03;63.02
6851;BME280;3464;42.728;23.296;2023-01-29T02:16:40;95390.19;;;6.93;63.25
6851;BME280;3464;42.728;23.296;2023-01-29T02:19:12;95395.40;;;7.38;62.64
6851;BME280;3464;42.728;23.296;2023-01-29T02:21:49;95396.75;;;7.42;62.41
6851;BME280;3464;42.728;23.296;2023-01-29T02:27:05;95397.03;;;7.01;62.88
6851;BME280;3464;42.728;23.296;2023-01-29T02:29:37;95393.12;;;7.67;62.58
6851;BME280;3464;42.728;23.296;2023-01-29T02:32:13;95406.47;;;7.66;61.41
6851;BME280;3464;42.728;23.296;2023-01-29T02:37:25;95403.77;;;7.39;62.74
6851;BME280;3464;42.728;23.296;2023-01-29T02:39:56;95404.26;;;8.00;61.21
6851;BME280;3464;42.728;23.296;2023-01-29T02:42:23;95398.76;;;7.76;61.23
6851;BME280;3464;42.728;23.296;2023-01-29T02:44:47;95410.80;;;8.14;60.93
6851;BME280;3464;42.728;23.296;2023-01-29T02:47:21;95405.73;;;8.10;59.93
6851;BME280;3464;42.728;23.296;2023-01-29T02:49:48;95413.92;;;8.02;60.27
6851;BME280;3464;42.728;23.296;2023-01-29T02:52:17;95414.91;;;8.28;59.85
6851;BME280;3464;42.728;23.296;2023-01-29T02:54:50;95411.47;;;8.05;60.41
6851;BME280;3464;42.728;23.296;2023-01-29T02:57:17;95411.31;;;7.78;60.80
6851;BME280;3464;42.728;23.296;2023-01-29T03:00:02;95405.65;;;7.86;61.49
6851;BME280;3464;42.728;23.296;2023-01-29T03:02:28;95406.53;;;7.68;61.69
6851;BME280;3464;42.728;23.296;2023-01-29T03:04:59;95414.13;;;7.92;61.15
6851;BME280;3464;42.728;23.296;2023-01-29T03:07:24;95410.27;;;8.25;60.91
6851;BME280;3464;42.728;23.296;2023-01-29T03:10:05;95412.70;;;8.03;60.91
6851;BME280;3464;42.728;23.296;2023-01-29T03:12:31;95410.33;;;7.91;61.30
6851;BME280;3464;42.728;23.296;2023-01-29T03:15:00;95412.97;;;7.96;61.52
6851;BME280;3464;42.728;23.296;2023-01-29T03:17:32;95407.69;;;8.04;61.01
6851;BME280;3464;42.728;23.296;2023-01-29T03:19:58;95412.13;;;8.16;60.84
6851;BME280;3464;42.728;23.296;2023-01-29T03:22:25;95415.50;;;7.97;60.94
6851;BME280;3464;42.728;23.296;2023-01-29T03:24:54;95415.16;;;8.22;60.43
6851;BME280;3464;42.728;23.296;2023-01-29T03:27:27;95424.47;;;8.07;60.52
6851;BME280;3464;42.728;23.296;2023-01-29T03:29:58;95423.58;;;8.04;60.68
6851;BME280;3464;42.728;23.296;2023-01-29T03:32:32;95425.47;;;7.95;61.10
6851;BME280;3464;42.728;23.296;2023-01-29T03:35:00;95425.73;;;7.88;61.17
6851;BME280;3464;42.728;23.296;2023-01-29T03:37:31;95424.73;;;8.01;60.91
6851;BME280;3464;42.728;23.296;2023-01-29T03:39:56;95421.94;;;8.46;59.51
6851;BME280;3464;42.728;23.296;2023-01-29T03:42:27;95424.58;;;8.31;59.92
6851;BME280;3464;42.728;23.296;2023-01-29T03:44:57;95423.75;;;8.31;59.75
6851;BME280;3464;42.728;23.296;2023-01-29T03:50:18;95426.64;;;7.72;60.93
6851;BME280;3464;42.728;23.296;2023-01-29T03:52:58;95419.52;;;8.11;60.08
6851;BME280;3464;42.728;23.296;2023-01-29T03:55:23;95420.34;;;8.09;60.43
6851;BME280;3464;42.728;23.296;2023-01-29T03:57:57;95420.28;;;8.07;59.97
6851;BME280;3464;42.728;23.296;2023-01-29T04:00:28;95420.66;;;8.44;59.29
6851;BME280;3464;42.728;23.296;2023-01-29T04:03:01;95416.03;;;8.04;60.13
6851;BME280;3464;42.728;23.296;2023-01-29T04:05:26;95416.09;;;8.07;60.05
6851;BME280;3464;42.728;23.296;2023-01-29T04:08:02;95422.64;;;8.20;59.42
6851;BME280;3464;42.728;23.296;2023-01-29T04:10:18;95420.50;;;8.17;60.14
6851;BME280;3464;42.728;23.296;2023-01-29T04:12:55;95424.17;;;8.33;59.46
6851;BME280;3464;42.728;23.296;2023-01-29T04:15:21;95427.27;;;8.40;59.07
6851;BME280;3464;42.728;23.296;2023-01-29T04:17:49;95427.87;;;8.51;59.41
6851;BME280;3464;42.728;23.296;2023-01-29T04:20:15;95431.32;;;8.56;58.58
6851;BME280;3464;42.728;23.296;2023-01-29T04:22:43;95428.82;;;8.15;59.93
6851;BME280;3464;42.728;23.296;2023-01-29T04:25:10;95434.42;;;8.43;59.44
6851;BME280;3464;42.728;23.296;2023-01-29T04:27:57;95435.88;;;8.54;59.75
6851;BME280;3464;42.728;23.296;2023-01-29T04:30:31;95439.47;;;8.44;59.65
6851;BME280;3464;42.728;23.296;2023-01-29T04:33:32;95432.09;;;8.12;60.18
6851;BME280;3464;42.728;23.296;2023-01-29T04:35:54;95433.44;;;8.36;59.80
6851;BME280;3464;42.728;23.296;2023-01-29T04:38:31;95435.16;;;8.37;59.23
6851;BME280;3464;42.728;23.296;2023-01-29T04:40:59;95432.15;;;8.15;59.74
6851;BME280;3464;42.728;23.296;2023-01-29T04:43:28;95440.59;;;8.18;59.77
6851;BME280;3464;42.728;23.296;2023-01-29T04:46:07;95432.05;;;8.10;59.79
6851;BME280;3464;42.728;23.296;2023-01-29T04:49:05;95436.95;;;8.24;59.48
6851;BME280;3464;42.728;23.296;2023-01-29T04:51:18;95436.92;;;8.22;59.69
6851;BME280;3464;42.728;23.296;2023-01-29T04:54:52;95441.70;;;8.31;59.78
6851;BME280;3464;42.728;23.296;2023-01-29T04:56:42;95441.80;;;8.35;59.36
6851;BME280;3464;42.728;23.296;2023-01-29T04:59:08;95441.40;;;8.36;59.41
6851;BME280;3464;42.728;23.296;2023-01-29T05:01:34;95447.08;;;8.28;59.46
6851;BME280;3464;42.728;23.296;2023-01-29T05:04:01;95447.27;;;8.38;59.98
6851;BME280;3464;42.728;23.296;2023-01-29T05:06:27;95442.86;;;8.48;59.48
6851;BME280;3464;42.728;23.296;2023-01-29T05:08:54;95450.63;;;8.38;59.60
6851;BME280;3464;42.728;23.296;2023-01-29T05:11:21;95449.20;;;8.50;58.90
6851;BME280;3464;42.728;23.296;2023-01-29T05:13:49;95448.80;;;8.51;59.33
6851;BME280;3464;42.728;23.296;2023-01-29T05:16:17;95450.20;;;8.19;60.02
6851;BME280;3464;42.728;23.296;2023-01-29T05:18:43;95456.05;;;8.38;59.22
6851;BME280;3464;42.728;23.296;2023-01-29T05:21:09;95448.77;;;8.50;59.04
6851;BME280;3464;42.728;23.296;2023-01-29T05:23:36;95447.64;;;8.34;59.60
6851;BME280;3464;42.728;23.296;2023-01-29T05:26:02;95454.72;;;8.14;59.76
6851;BME280;3464;42.728;23.296;2023-01-29T05:28:29;95449.64;;;8.12;59.35
6851;BME280;3464;42.728;23.296;2023-01-29T05:30:59;95461.05;;;7.96;60.40
6851;BME280;3464;42.728;23.296;2023-01-29T05:33:27;95460.52;;;7.93;59.79
6851;BME280;3464;42.728;23.296;2023-01-29T05:35:52;95461.40;;;8.33;58.99
6851;BME280;3464;42.728;23.296;2023-01-29T05:38:19;95465.63;;;8.35;58.77
6851;BME280;3464;42.728;23.296;2023-01-29T05:40:46;95464.30;;;8.53;58.38
6851;BME280;3464;42.728;23.296;2023-01-29T05:43:18;95469.02;;;8.37;58.50
6851;BME280;3464;42.728;23.296;2023-01-29T05:45:51;95467.80;;;8.60;57.88
6851;BME280;3464;42.728;23.296;2023-01-29T05:48:17;95473.64;;;8.60;57.98
6851;BME280;3464;42.728;23.296;2023-01-29T05:50:43;95478.07;;;8.72;58.27
6851;BME280;3464;42.728;23.296;2023-01-29T05:53:10;95477.58;;;8.70;57.94
6851;BME280;3464;42.728;23.296;2023-01-29T05:55:36;95477.80;;;8.59;57.94
6851;BME280;3464;42.728;23.296;2023-01-29T05:58:03;95478.32;;;8.43;58.26
6851;BME280;3464;42.728;23.296;2023-01-29T06:00:29;95483.42;;;8.68;58.22
6851;BME280;3464;42.728;23.296;2023-01-29T06:02:57;95487.59;;;8.68;58.43
6851;BME280;3464;42.728;23.296;2023-01-29T06:05:22;95487.47;;;8.61;58.55
6851;BME280;3464;42.728;23.296;2023-01-29T06:07:52;95488.59;;;8.77;57.96
6851;BME280;3464;42.728;23.296;2023-01-29T06:10:19;95491.30;;;8.06;60.17
6851;BME280;3464;42.728;23.296;2023-01-29T06:12:47;95495.38;;;8.02;61.10
6851;BME280;3464;42.728;23.296;2023-01-29T06:15:13;95497.59;;;8.45;60.42
6851;BME280;3464;42.728;23.296;2023-01-29T06:17:40;95502.78;;;8.33;60.24
6851;BME280;3464;42.728;23.296;2023-01-29T06:20:08;95507.27;;;8.10;60.59
6851;BME280;3464;42.728;23.296;2023-01-29T06:22:35;95509.44;;;7.77;61.51
6851;BME280;3464;42.728;23.296;2023-01-29T06:25:02;95517.89;;;7.82;61.24
6851;BME280;3464;42.728;23.296;2023-01-29T06:27:28;95511.49;;;7.24;62.88
6851;BME280;3464;42.728;23.296;2023-01-29T06:29:55;95523.53;;;7.06;64.59
6851;BME280;3464;42.728;23.296;2023-01-29T06:32:21;95519.06;;;7.78;62.37
6851;BME280;3464;42.728;23.296;2023-01-29T06:34:48;95528.11;;;7.05;64.25
6851;BME280;3464;42.728;23.296;2023-01-29T06:37:15;95530.72;;;7.59;63.36
6851;BME280;3464;42.728;23.296;2023-01-29T06:39:41;95527.86;;;8.15;61.58
6851;BME280;3464;42.728;23.296;2023-01-29T06:42:08;95528.91;;;8.44;61.63
6851;BME280;3464;42.728;23.296;2023-01-29T06:44:34;95528.11;;;8.65;61.03
6851;BME280;3464;42.728;23.296;2023-01-29T06:47:01;95531.67;;;8.97;59.21
6851;BME280;3464;42.728;23.296;2023-01-29T06:49:28;95528.93;;;8.85;60.05
6851;BME280;3464;42.728;23.296;2023-01-29T06:51:54;95533.13;;;8.86;58.65
6851;BME280;3464;42.728;23.296;2023-01-29T06:54:21;95533.79;;;9.22;58.67
6851;BME280;3464;42.728;23.296;2023-01-29T06:56:47;95535.55;;;8.81;59.55
6851;BME280;3464;42.728;23.296;2023-01-29T06:59:14;95533.04;;;8.42;60.99
6851;BME280;3464;42.728;23.296;2023-01-29T07:01:41;95537.66;;;8.22;60.85
6851;BME280;3464;42.728;23.296;2023-01-29T07:04:07;95541.71;;;8.19;61.24
6851;BME280;3464;42.728;23.296;2023-01-29T07:06:34;95535.05;;;8.56;60.33
6851;BME280;3464;42.728;23.296;2023-01-29T07:09:01;95544.08;;;8.91;59.99
6851;BME280;3464;42.728;23.296;2023-01-29T07:11:28;95548.38;;;9.18;59.50
6851;BME280;3464;42.728;23.296;2023-01-29T07:13:55;95552.14;;;8.55;59.68
6851;BME280;3464;42.728;23.296;2023-01-29T07:16:21;95561.95;;;8.45;60.56
6851;BME280;3464;42.728;23.296;2023-01-29T07:18:48;95563.24;;;8.45;59.53
6851;BME280;3464;42.728;23.296;2023-01-29T07:21:14;95561.12;;;8.26;61.02
6851;BME280;3464;42.728;23.296;2023-01-29T07:23:41;95562.31;;;8.41;60.37
6851;BME280;3464;42.728;23.296;2023-01-29T07:26:09;95561.22;;;8.68;59.77
6851;BME280;3464;42.728;23.296;2023-01-29T07:28:35;95563.20;;;8.45;60.26
6851;BME280;3464;42.728;23.296;2023-01-29T07:31:01;95566.09;;;8.82;58.86
6851;BME280;3464;42.728;23.296;2023-01-29T07:33:28;95565.65;;;8.61;59.02
6851;BME280;3464;42.728;23.296;2023-01-29T07:35:54;95567.00;;;7.74;60.75
6851;BME280;3464;42.728;23.296;2023-01-29T07:38:21;95577.81;;;7.89;61.86
6851;BME280;3464;42.728;23.296;2023-01-29T07:40:48;95560.22;;;8.82;59.91
6851;BME280;3464;42.728;23.296;2023-01-29T07:43:14;95569.02;;;8.42;59.85
6851;BME280;3464;42.728;23.296;2023-01-29T07:45:41;95572.23;;;8.00;61.38
6851;BME280;3464;42.728;23.296;2023-01-29T07:48:09;95570.86;;;8.31;60.54
6851;BME280;3464;42.728;23.296;2023-01-29T07:50:34;95556.61;;;8.49;59.96
6851;BME280;3464;42.728;23.296;2023-01-29T07:53:00;95569.98;;;8.88;59.10
6851;BME280;3464;42.728;23.296;2023-01-29T07:55:27;95570.44;;;8.91;59.24
6851;BME280;3464;42.728;23.296;2023-01-29T07:57:59;95583.64;;;8.42;59.12
6851;BME280;3464;42.728;23.296;2023-01-29T08:00:25;95574.49;;;8.63;58.84
6851;BME280;3464;42.728;23.296;2023-01-29T08:02:51;95567.77;;;8.83;58.31
6851;BME280;3464;42.728;23.296;2023-01-29T08:05:18;95576.58;;;8.43;59.17
6851;BME280;3464;42.728;23.296;2023-01-29T08:07:44;95582.34;;;8.79;58.77
6851;BME280;3464;42.728;23.296;2023-01-29T08:10:11;95587.33;;;8.77;58.31
6851;BME280;3464;42.728;23.296;2023-01-29T08:12:38;95587.58;;;9.10;58.21
6851;BME280;3464;42.728;23.296;2023-01-29T08:15:05;95586.81;;;9.37;56.95
6851;BME280;3464;42.728;23.296;2023-01-29T08:17:32;95595.17;;;9.59;56.24
6851;BME280;3464;42.728;23.296;2023-01-29T08:19:58;95591.69;;;9.07;56.40
6851;BME280;3464;42.728;23.296;2023-01-29T08:22:25;95589.91;;;9.45;56.38
6851;BME280;3464;42.728;23.296;2023-01-29T08:24:51;95592.18;;;9.55;55.91
6851;BME280;3464;42.728;23.296;2023-01-29T08:27:18;95589.64;;;9.54;56.07
6851;BME280;3464;42.728;23.296;2023-01-29T08:29:44;95592.64;;;9.35;55.90
6851;BME280;3464;42.728;23.296;2023-01-29T08:32:11;95597.95;;;9.28;56.44
6851;BME280;3464;42.728;23.296;2023-01-29T08:34:38;95595.47;;;9.51;55.97
6851;BME280;3464;42.728;23.296;2023-01-29T08:37:04;95603.67;;;9.91;55.83
6851;BME280;3464;42.728;23.296;2023-01-29T08:39:31;95604.03;;;9.62;55.55
6851;BME280;3464;42.728;23.296;2023-01-29T08:41:57;95600.88;;;9.99;54.73
6851;BME280;3464;42.728;23.296;2023-01-29T08:44:24;95602.89;;;9.46;55.76
6851;BME280;3464;42.728;23.296;2023-01-29T08:46:50;95608.89;;;9.30;55.99
6851;BME280;3464;42.728;23.296;2023-01-29T08:49:17;95604.27;;;9.29;55.59
6851;BME280;3464;42.728;23.296;2023-01-29T08:51:43;95612.89;;;9.43;55.44
6851;BME280;3464;42.728;23.296;2023-01-29T08:54:10;95620.16;;;9.29;55.69
6851;BME280;3464;42.728;23.296;2023-01-29T08:56:37;95612.61;;;9.73;55.12
6851;BME280;3464;42.728;23.296;2023-01-29T08:59:03;95624.16;;;10.38;54.11
6851;BME280;3464;42.728;23.296;2023-01-29T09:01:30;95625.73;;;10.60;53.03
6851;BME280;3464;42.728;23.296;2023-01-29T09:03:57;95625.68;;;10.27;53.49
6851;BME280;3464;42.728;23.296;2023-01-29T09:06:23;95621.38;;;10.20;53.69
6851;BME280;3464;42.728;23.296;2023-01-29T09:08:50;95618.23;;;10.08;53.91
6851;BME280;3464;42.728;23.296;2023-01-29T09:11:16;95623.28;;;10.35;53.42
6851;BME280;3464;42.728;23.296;2023-01-29T09:13:43;95614.15;;;10.71;52.38
6851;BME280;3464;42.728;23.296;2023-01-29T09:16:10;95618.95;;;10.28;53.05
6851;BME280;3464;42.728;23.296;2023-01-29T09:18:37;95617.56;;;9.03;55.15
6851;BME280;3464;42.728;23.296;2023-01-29T09:21:04;95621.16;;;9.60;54.35
6851;BME280;3464;42.728;23.296;2023-01-29T09:23:31;95614.94;;;9.41;55.01
6851;BME280;3464;42.728;23.296;2023-01-29T09:25:57;95619.27;;;9.26;54.49
6851;BME280;3464;42.728;23.296;2023-01-29T09:28:24;95619.30;;;9.28;55.05
6851;BME280;3464;42.728;23.296;2023-01-29T09:30:50;95619.59;;;9.43;54.71
6851;BME280;3464;42.728;23.296;2023-01-29T09:33:17;95619.31;;;9.51;55.03
6851;BME280;3464;42.728;23.296;2023-01-29T09:35:44;95612.03;;;8.78;55.63
6851;BME280;3464;42.728;23.296;2023-01-29T09:38:11;95608.60;;;9.38;55.58
6851;BME280;3464;42.728;23.296;2023-01-29T09:40:45;95609.75;;;9.78;54.73
6851;BME280;3464;42.728;23.296;2023-01-29T09:43:15;95605.83;;;9.23;55.80
6851;BME280;3464;42.728;23.296;2023-01-29T09:45:41;95605.80;;;8.61;56.57
6851;BME280;3464;42.728;23.296;2023-01-29T09:48:07;95608.44;;;9.07;55.63
6851;BME280;3464;42.728;23.296;2023-01-29T09:50:36;95607.21;;;9.09;55.26
6851;BME280;3464;42.728;23.296;2023-01-29T09:53:05;95606.23;;;9.46;54.59
6851;BME280;3464;42.728;23.296;2023-01-29T09:55:31;95602.55;;;8.86;55.72
6851;BME280;3464;42.728;23.296;2023-01-29T09:57:59;95599.20;;;9.98;54.16
6851;BME280;3464;42.728;23.296;2023-01-29T10:03:42;95601.38;;;10.05;54.02
6851;BME280;3464;42.728;23.296;2023-01-29T10:06:33;95594.23;;;9.78;54.05
6851;BME280;3464;42.728;23.296;2023-01-29T10:14:35;95585.33;;;10.21;52.98
6851;BME280;3464;42.728;23.296;2023-01-29T10:20:02;95584.12;;;10.24;53.74
6851;BME280;3464;42.728;23.296;2023-01-29T10:22:49;95582.36;;;9.45;53.69
6851;BME280;3464;42.728;23.296;2023-01-29T10:25:13;95588.78;;;10.03;53.62
6851;BME280;3464;42.728;23.296;2023-01-29T10:27:39;95575.40;;;10.31;53.01
6851;BME280;3464;42.728;23.296;2023-01-29T10:30:07;95582.32;;;10.16;52.85
6851;BME280;3464;42.728;23.296;2023-01-29T10:32:33;95574.17;;;9.10;54.46
6851;BME280;3464;42.728;23.296;2023-01-29T10:35:01;95579.80;;;9.21;54.93
6851;BME280;3464;42.728;23.296;2023-01-29T10:39:59;95571.50;;;9.72;54.40
6851;BME280;3464;42.728;23.296;2023-01-29T10:42:34;95576.37;;;9.39;54.64
6851;BME280;3464;42.728;23.296;2023-01-29T10:45:25;95575.05;;;9.57;54.58
6851;BME280;3464;42.728;23.296;2023-01-29T10:48:01;95575.22;;;9.69;53.66
6851;BME280;3464;42.728;23.296;2023-01-29T10:50:36;95571.27;;;10.35;53.36
6851;BME280;3464;42.728;23.296;2023-01-29T10:53:26;95570.32;;;9.28;55.03
6851;BME280;3464;42.728;23.296;2023-01-29T10:58:55;95564.22;;;8.72;55.86
6851;BME280;3464;42.728;23.296;2023-01-29T11:01:20;95567.18;;;9.17;55.44
6851;BME280;3464;42.728;23.296;2023-01-29T11:03:54;95558.73;;;9.35;55.01
6851;BME280;3464;42.728;23.296;2023-01-29T11:06:20;95563.52;;;9.00;55.17
6851;BME280;3464;42.728;23.296;2023-01-29T11:11:23;95559.17;;;8.91;56.02
6851;BME280;3464;42.728;23.296;2023-01-29T11:13:51;95554.76;;;8.40;56.82
6851;BME280;3464;42.728;23.296;2023-01-29T11:16:16;95553.23;;;8.87;56.23
6851;BME280;3464;42.728;23.296;2023-01-29T11:18:53;95551.21;;;8.70;56.15
6851;BME280;3464;42.728;23.296;2023-01-29T11:21:20;95546.73;;;8.56;56.46
6851;BME280;3464;42.728;23.296;2023-01-29T11:23:48;95548.00;;;8.97;55.97
6851;BME280;3464;42.728;23.296;2023-01-29T11:26:17;95540.03;;;8.98;56.31
6851;BME280;3464;42.728;23.296;2023-01-29T11:28:45;95543.20;;;9.33;54.88
6851;BME280;3464;42.728;23.296;2023-01-29T11:31:28;95536.03;;;9.31;54.87
6851;BME280;3464;42.728;23.296;2023-01-29T11:34:05;95535.03;;;9.71;54.26
6851;BME280;3464;42.728;23.296;2023-01-29T11:36:34;95529.89;;;9.38;54.53
6851;BME280;3464;42.728;23.296;2023-01-29T11:39:19;95524.20;;;9.02;56.90
6851;BME280;3464;42.728;23.296;2023-01-29T11:41:58;95527.05;;;9.67;54.71
6851;BME280;3464;42.728;23.296;2023-01-29T11:44:32;95517.70;;;9.35;55.51
6851;BME280;3464;42.728;23.296;2023-01-29T11:47:22;95520.41;;;9.72;55.19
6851;BME280;3464;42.728;23.296;2023-01-29T11:50:00;95528.27;;;9.67;54.45
6851;BME280;3464;42.728;23.296;2023-01-29T11:52:35;95520.96;;;9.54;54.00
6851;BME280;3464;42.728;23.296;2023-01-29T11:55:06;95517.59;;;9.54;54.33
6851;BME280;3464;42.728;23.296;2023-01-29T11:58:26;95517.70;;;10.13;53.52
6851;BME280;3464;42.728;23.296;2023-01-29T12:00:36;95508.28;;;10.97;52.47
6851;BME280;3464;42.728;23.296;2023-01-29T12:05:37;95505.22;;;11.69;50.86
6851;BME280;3464;42.728;23.296;2023-01-29T12:08:09;95506.13;;;11.77;50.52
6851;BME280;3464;42.728;23.296;2023-01-29T12:10:35;95498.02;;;11.64;50.21
6851;BME280;3464;42.728;23.296;2023-01-29T12:13:04;95502.65;;;11.63;50.36
6851;BME280;3464;42.728;23.296;2023-01-29T12:15:32;95504.19;;;11.49;50.02
6851;BME280;3464;42.728;23.296;2023-01-29T12:18:05;95504.27;;;10.75;51.51
6851;BME280;3464;42.728;23.296;2023-01-29T12:26:15;95494.84;;;11.39;50.54
6851;BME280;3464;42.728;23.296;2023-01-29T12:28:53;95500.62;;;11.27;49.89
6851;BME280;3464;42.728;23.296;2023-01-29T12:34:22;95499.22;;;11.13;50.65
6851;BME280;3464;42.728;23.296;2023-01-29T12:36:49;95496.20;;;10.36;51.61
6851;BME280;3464;42.728;23.296;2023-01-29T12:39:14;95499.45;;;11.36;50.67
6851;BME280;3464;42.728;23.296;2023-01-29T12:41:48;95505.03;;;10.37;51.40
6851;BME280;3464;42.728;23.296;2023-01-29T12:44:17;95506.67;;;10.34;51.63
6851;BME280;3464;42.728;23.296;2023-01-29T12:46:44;95513.14;;;10.46;51.75
6851;BME280;3464;42.728;23.296;2023-01-29T12:49:20;95504.52;;;10.61;51.54
6851;BME280;3464;42.728;23.296;2023-01-29T12:54:56;95509.28;;;9.85;53.13
6851;BME280;3464;42.728;23.296;2023-01-29T13:00:56;95504.47;;;9.70;53.71
6851;BME280;3464;42.728;23.296;2023-01-29T13:03:28;95505.28;;;8.96;54.88
6851;BME280;3464;42.728;23.296;2023-01-29T13:05:58;95503.57;;;9.94;53.38
6851;BME280;3464;42.728;23.296;2023-01-29T13:08:38;95496.87;;;10.54;52.56
6851;BME280;3464;42.728;23.296;2023-01-29T13:11:09;95493.86;;;9.90;52.66
6851;BME280;3464;42.728;23.296;2023-01-29T13:18:59;95508.35;;;9.27;53.70
6851;BME280;3464;42.728;23.296;2023-01-29T13:21:30;95509.28;;;9.09;54.23
6851;BME280;3464;42.728;23.296;2023-01-29T13:23:59;95511.92;;;9.17;54.63
6851;BME280;3464;42.728;23.296;2023-01-29T13:29:34;95513.64;;;9.42;53.33
6851;BME280;3464;42.728;23.296;2023-01-29T13:32:07;95526.39;;;9.29;53.54
6851;BME280;3464;42.728;23.296;2023-01-29T13:34:35;95519.17;;;9.49;53.48
6851;BME280;3464;42.728;23.296;2023-01-29T13:37:17;95527.14;;;9.49;53.49
6851;BME280;3464;42.728;23.296;2023-01-29T13:39:30;95528.75;;;9.71;53.32
6851;BME280;3464;42.728;23.296;2023-01-29T13:41:56;95528.45;;;10.32;52.47
6851;BME280;3464;42.728;23.296;2023-01-29T13:44:24;95531.59;;;8.93;54.18
6851;BME280;3464;42.728;23.296;2023-01-29T13:46:52;95517.89;;;9.00;54.61
6851;BME280;3464;42.728;23.296;2023-01-29T13:49:24;95533.61;;;8.69;55.38
6851;BME280;3464;42.728;23.296;2023-01-29T13:51:49;95527.63;;;9.28;54.63
6851;BME280;3464;42.728;23.296;2023-01-29T13:54:31;95533.89;;;9.28;54.45
6851;BME280;3464;42.728;23.296;2023-01-29T13:56:59;95539.47;;;9.12;54.29
6851;BME280;3464;42.728;23.296;2023-01-29T14:02:16;95540.50;;;8.57;55.10
6851;BME280;3464;42.728;23.296;2023-01-29T14:04:30;95539.69;;;9.02;54.58
6851;BME280;3464;42.728;23.296;2023-01-29T14:06:57;95538.84;;;8.59;55.06
6851;BME280;3464;42.728;23.296;2023-01-29T14:09:58;95544.80;;;9.30;54.29
6851;BME280;3464;42.728;23.296;2023-01-29T14:12:36;95550.59;;;9.47;54.08
6851;BME280;3464;42.728;23.296;2023-01-29T14:15:13;95553.98;;;9.76;53.00
6851;BME280;3464;42.728;23.296;2023-01-29T14:17:30;95550.39;;;9.37;53.85
6851;BME280;3464;42.728;23.296;2023-01-29T14:20:01;95552.02;;;9.35;53.95
6851;BME280;3464;42.728;23.296;2023-01-29T14:22:27;95546.91;;;8.84;55.15
6851;BME280;3464;42.728;23.296;2023-01-29T14:24:54;95554.39;;;8.42;55.71
6851;BME280;3464;42.728;23.296;2023-01-29T14:27:20;95556.81;;;8.78;55.38